sensor_id;sensor_type;location;lat;lon;timestamp;P1;durP1;ratioP1;P2;durP2;ratioP2
6111;SDS011;3086;48.802;9.394;2023-04-16T00:00:08;15.97;;;13.80;;
6111;SDS011;3086;48.802;9.394;2023-04-16T00:03:30;17.23;;;13.97;;
6111;SDS011;3086;48.802;9.394;2023-04-16T00:06:52;17.60;;;13.93;;
6111;SDS011;3086;48.802;9.394;2023-04-16T00:10:13;18.23;;;14.73;;
6111;SDS011;3086;48.802;9.394;2023-04-16T00:13:35;15.87;;;14.17;;
6111;SDS011;3086;48.802;9.394;2023-04-16T00:16:59;16.93;;;14.70;;
6111;SDS011;3086;48.802;9.394;2023-04-16T00:20:20;16.83;;;14.83;;
6111;SDS011;3086;48.802;9.394;2023-04-16T00:23:42;19.93;;;16.67;;
6111;SDS011;3086;48.802;9.394;2023-04-16T00:27:03;18.03;;;15.33;;
6111;SDS011;3086;48.802;9.394;2023-04-16T00:30:28;17.57;;;14.70;;
6111;SDS011;3086;48.802;9.394;2023-04-16T00:33:51;20.67;;;16.40;;
6111;SDS011;3086;48.802;9.394;2023-04-16T00:37:13;18.03;;;15.27;;
6111;SDS011;3086;48.802;9.394;2023-04-16T00:40:34;15.60;;;14.00;;
6111;SDS011;3086;48.802;9.394;2023-04-16T00:43:56;21.03;;;16.67;;
6111;SDS011;3086;48.802;9.394;2023-04-16T00:47:18;19.27;;;15.50;;
6111;SDS011;3086;48.802;9.394;2023-04-16T00:50:41;18.90;;;14.90;;
6111;SDS011;3086;48.802;9.394;2023-04-16T00:54:02;18.43;;;15.80;;
6111;SDS011;3086;48.802;9.394;2023-04-16T00:57:26;20.00;;;15.73;;
6111;SDS011;3086;48.802;9.394;2023-04-16T01:00:48;18.47;;;14.50;;
6111;SDS011;3086;48.802;9.394;2023-04-16T01:04:09;17.63;;;15.37;;
6111;SDS011;3086;48.802;9.394;2023-04-16T01:07:32;17.10;;;15.30;;
6111;SDS011;3086;48.802;9.394;2023-04-16T01:10:54;17.70;;;15.10;;
6111;SDS011;3086;48.802;9.394;2023-04-16T01:14:18;16.20;;;14.07;;
6111;SDS011;3086;48.802;9.394;2023-04-16T01:17:40;18.30;;;14.90;;
6111;SDS011;3086;48.802;9.394;2023-04-16T01:21:03;18.80;;;15.10;;
6111;SDS011;3086;48.802;9.394;2023-04-16T01:24:26;18.97;;;14.47;;
6111;SDS011;3086;48.802;9.394;2023-04-16T01:27:48;17.30;;;14.67;;
6111;SDS011;3086;48.802;9.394;2023-04-16T01:31:10;15.00;;;12.60;;
6111;SDS011;3086;48.802;9.394;2023-04-16T01:34:31;19.53;;;13.73;;
6111;SDS011;3086;48.802;9.394;2023-04-16T01:38:03;16.60;;;13.70;;
6111;SDS011;3086;48.802;9.394;2023-04-16T01:41:26;15.40;;;13.13;;
6111;SDS011;3086;48.802;9.394;2023-04-16T01:44:48;16.30;;;13.43;;
6111;SDS011;3086;48.802;9.394;2023-04-16T01:48:09;15.90;;;13.53;;
6111;SDS011;3086;48.802;9.394;2023-04-16T01:51:31;14.63;;;12.60;;
6111;SDS011;3086;48.802;9.394;2023-04-16T01:54:54;14.93;;;12.20;;
6111;SDS011;3086;48.802;9.394;2023-04-16T01:58:16;13.73;;;12.10;;
6111;SDS011;3086;48.802;9.394;2023-04-16T02:01:38;12.97;;;11.53;;
6111;SDS011;3086;48.802;9.394;2023-04-16T02:05:03;13.40;;;11.87;;
6111;SDS011;3086;48.802;9.394;2023-04-16T02:08:25;13.00;;;11.60;;
6111;SDS011;3086;48.802;9.394;2023-04-16T02:11:48;12.77;;;11.47;;
6111;SDS011;3086;48.802;9.394;2023-04-16T02:15:10;13.40;;;11.80;;
6111;SDS011;3086;48.802;9.394;2023-04-16T02:18:32;13.60;;;11.27;;
6111;SDS011;3086;48.802;9.394;2023-04-16T02:21:53;13.17;;;11.60;;
6111;SDS011;3086;48.802;9.394;2023-04-16T02:25:15;12.83;;;10.83;;
6111;SDS011;3086;48.802;9.394;2023-04-16T02:28:39;13.07;;;11.10;;
6111;SDS011;3086;48.802;9.394;2023-04-16T02:32:00;12.73;;;10.70;;
6111;SDS011;3086;48.802;9.394;2023-04-16T02:35:22;12.77;;;10.53;;
6111;SDS011;3086;48.802;9.394;2023-04-16T02:38:43;12.80;;;10.50;;
6111;SDS011;3086;48.802;9.394;2023-04-16T02:42:05;13.57;;;10.63;;
6111;SDS011;3086;48.802;9.394;2023-04-16T02:45:28;13.90;;;11.20;;
6111;SDS011;3086;48.802;9.394;2023-04-16T02:48:50;12.33;;;10.80;;
6111;SDS011;3086;48.802;9.394;2023-04-16T02:52:12;14.17;;;11.47;;
6111;SDS011;3086;48.802;9.394;2023-04-16T02:55:33;13.37;;;11.03;;
6111;SDS011;3086;48.802;9.394;2023-04-16T02:58:56;14.33;;;11.70;;
6111;SDS011;3086;48.802;9.394;2023-04-16T03:02:19;12.53;;;11.23;;
6111;SDS011;3086;48.802;9.394;2023-04-16T03:05:41;14.10;;;12.60;;
6111;SDS011;3086;48.802;9.394;2023-04-16T03:09:03;14.87;;;12.30;;
6111;SDS011;3086;48.802;9.394;2023-04-16T03:12:24;17.17;;;12.70;;
6111;SDS011;3086;48.802;9.394;2023-04-16T03:15:49;17.93;;;13.07;;
6111;SDS011;3086;48.802;9.394;2023-04-16T03:19:12;13.93;;;12.30;;
6111;SDS011;3086;48.802;9.394;2023-04-16T03:22:33;15.83;;;12.23;;
6111;SDS011;3086;48.802;9.394;2023-04-16T03:25:55;16.37;;;13.53;;
6111;SDS011;3086;48.802;9.394;2023-04-16T03:29:17;16.23;;;12.60;;
6111;SDS011;3086;48.802;9.394;2023-04-16T03:32:38;17.80;;;13.90;;
6111;SDS011;3086;48.802;9.394;2023-04-16T03:36:02;15.33;;;13.43;;
6111;SDS011;3086;48.802;9.394;2023-04-16T03:39:23;15.33;;;13.73;;
6111;SDS011;3086;48.802;9.394;2023-04-16T03:42:45;15.90;;;13.77;;
6111;SDS011;3086;48.802;9.394;2023-04-16T03:46:06;15.97;;;12.50;;
6111;SDS011;3086;48.802;9.394;2023-04-16T03:49:28;20.47;;;14.77;;
6111;SDS011;3086;48.802;9.394;2023-04-16T03:52:51;18.30;;;14.37;;
6111;SDS011;3086;48.802;9.394;2023-04-16T03:56:12;17.13;;;13.30;;
6111;SDS011;3086;48.802;9.394;2023-04-16T03:59:34;17.50;;;13.70;;
6111;SDS011;3086;48.802;9.394;2023-04-16T04:02:56;15.10;;;12.73;;
6111;SDS011;3086;48.802;9.394;2023-04-16T04:06:17;14.57;;;12.57;;
6111;SDS011;3086;48.802;9.394;2023-04-16T04:09:40;15.63;;;11.73;;
6111;SDS011;3086;48.802;9.394;2023-04-16T04:13:02;15.97;;;12.37;;
6111;SDS011;3086;48.802;9.394;2023-04-16T04:16:27;15.07;;;12.13;;
6111;SDS011;3086;48.802;9.394;2023-04-16T04:19:49;17.40;;;13.33;;
6111;SDS011;3086;48.802;9.394;2023-04-16T04:23:11;13.57;;;11.97;;
6111;SDS011;3086;48.802;9.394;2023-04-16T04:26:34;15.67;;;13.43;;
6111;SDS011;3086;48.802;9.394;2023-04-16T04:29:56;15.87;;;12.70;;
6111;SDS011;3086;48.802;9.394;2023-04-16T04:33:18;17.73;;;11.90;;
6111;SDS011;3086;48.802;9.394;2023-04-16T04:36:39;16.83;;;13.50;;
6111;SDS011;3086;48.802;9.394;2023-04-16T04:40:01;15.27;;;12.63;;
6111;SDS011;3086;48.802;9.394;2023-04-16T04:43:24;15.73;;;13.00;;
6111;SDS011;3086;48.802;9.394;2023-04-16T04:46:45;18.33;;;13.97;;
6111;SDS011;3086;48.802;9.394;2023-04-16T04:50:07;15.97;;;13.77;;
6111;SDS011;3086;48.802;9.394;2023-04-16T04:53:30;20.67;;;14.47;;
6111;SDS011;3086;48.802;9.394;2023-04-16T04:56:51;18.03;;;13.83;;
6111;SDS011;3086;48.802;9.394;2023-04-16T05:00:14;19.57;;;15.23;;
6111;SDS011;3086;48.802;9.394;2023-04-16T05:03:36;18.33;;;14.63;;
6111;SDS011;3086;48.802;9.394;2023-04-16T05:06:59;21.33;;;15.10;;
6111;SDS011;3086;48.802;9.394;2023-04-16T05:10:20;19.77;;;14.77;;
6111;SDS011;3086;48.802;9.394;2023-04-16T05:13:42;21.07;;;15.60;;
6111;SDS011;3086;48.802;9.394;2023-04-16T05:17:06;18.03;;;13.70;;
6111;SDS011;3086;48.802;9.394;2023-04-16T05:20:30;20.37;;;15.87;;
6111;SDS011;3086;48.802;9.394;2023-04-16T05:23:52;19.33;;;15.03;;
6111;SDS011;3086;48.802;9.394;2023-04-16T05:27:13;20.07;;;14.80;;
6111;SDS011;3086;48.802;9.394;2023-04-16T05:30:35;17.27;;;14.93;;
6111;SDS011;3086;48.802;9.394;2023-04-16T05:33:58;21.47;;;14.93;;
6111;SDS011;3086;48.802;9.394;2023-04-16T05:37:20;19.70;;;14.30;;
6111;SDS011;3086;48.802;9.394;2023-04-16T05:40:42;22.77;;;15.63;;
6111;SDS011;3086;48.802;9.394;2023-04-16T05:44:13;21.00;;;16.77;;
6111;SDS011;3086;48.802;9.394;2023-04-16T06:09:34;23.77;;;17.37;;
6111;SDS011;3086;48.802;9.394;2023-04-16T06:13:40;29.07;;;19.43;;
6111;SDS011;3086;48.802;9.394;2023-04-16T06:17:02;25.00;;;18.83;;
6111;SDS011;3086;48.802;9.394;2023-04-16T06:20:24;29.27;;;20.80;;
6111;SDS011;3086;48.802;9.394;2023-04-16T06:23:45;30.90;;;21.87;;
6111;SDS011;3086;48.802;9.394;2023-04-16T06:27:09;29.50;;;21.00;;
6111;SDS011;3086;48.802;9.394;2023-04-16T06:30:31;30.97;;;21.37;;
6111;SDS011;3086;48.802;9.394;2023-04-16T06:33:53;31.63;;;21.93;;
6111;SDS011;3086;48.802;9.394;2023-04-16T06:37:15;32.33;;;22.33;;
6111;SDS011;3086;48.802;9.394;2023-04-16T06:40:36;27.13;;;21.07;;
6111;SDS011;3086;48.802;9.394;2023-04-16T06:43:59;33.53;;;23.30;;
6111;SDS011;3086;48.802;9.394;2023-04-16T06:47:21;31.33;;;23.13;;
6111;SDS011;3086;48.802;9.394;2023-04-16T06:50:42;36.83;;;23.60;;
6111;SDS011;3086;48.802;9.394;2023-04-16T06:54:04;35.50;;;23.73;;
6111;SDS011;3086;48.802;9.394;2023-04-16T06:57:26;33.77;;;24.13;;
6111;SDS011;3086;48.802;9.394;2023-04-16T07:00:48;34.70;;;23.40;;
6111;SDS011;3086;48.802;9.394;2023-04-16T07:04:10;33.77;;;23.67;;
6111;SDS011;3086;48.802;9.394;2023-04-16T07:07:32;31.27;;;22.30;;
6111;SDS011;3086;48.802;9.394;2023-04-16T07:10:53;31.30;;;22.67;;
6111;SDS011;3086;48.802;9.394;2023-04-16T07:14:15;35.07;;;22.83;;
6111;SDS011;3086;48.802;9.394;2023-04-16T07:17:39;33.17;;;23.03;;
6111;SDS011;3086;48.802;9.394;2023-04-16T07:21:00;31.57;;;22.67;;
6111;SDS011;3086;48.802;9.394;2023-04-16T07:24:22;30.77;;;22.83;;
6111;SDS011;3086;48.802;9.394;2023-04-16T07:27:43;34.00;;;22.47;;
6111;SDS011;3086;48.802;9.394;2023-04-16T07:31:05;32.73;;;22.97;;
6111;SDS011;3086;48.802;9.394;2023-04-16T07:34:28;29.60;;;21.37;;
6111;SDS011;3086;48.802;9.394;2023-04-16T07:37:50;35.50;;;22.30;;
6111;SDS011;3086;48.802;9.394;2023-04-16T07:41:11;29.57;;;21.90;;
6111;SDS011;3086;48.802;9.394;2023-04-16T07:48:59;29.10;;;20.63;;
6111;SDS011;3086;48.802;9.394;2023-04-16T07:52:22;27.23;;;19.43;;
6111;SDS011;3086;48.802;9.394;2023-04-16T07:55:47;28.33;;;20.57;;
6111;SDS011;3086;48.802;9.394;2023-04-16T07:59:08;27.70;;;21.17;;
6111;SDS011;3086;48.802;9.394;2023-04-16T08:02:30;26.97;;;19.70;;
6111;SDS011;3086;48.802;9.394;2023-04-16T08:05:52;27.37;;;19.97;;
6111;SDS011;3086;48.802;9.394;2023-04-16T08:09:15;28.20;;;19.57;;
6111;SDS011;3086;48.802;9.394;2023-04-16T08:12:37;30.27;;;20.67;;
6111;SDS011;3086;48.802;9.394;2023-04-16T08:15:58;25.53;;;19.97;;
6111;SDS011;3086;48.802;9.394;2023-04-16T08:19:20;32.47;;;22.07;;
6111;SDS011;3086;48.802;9.394;2023-04-16T08:22:42;29.93;;;21.10;;
6111;SDS011;3086;48.802;9.394;2023-04-16T08:26:06;27.30;;;20.03;;
6111;SDS011;3086;48.802;9.394;2023-04-16T08:29:27;24.60;;;19.43;;
6111;SDS011;3086;48.802;9.394;2023-04-16T08:32:49;27.93;;;20.50;;
6111;SDS011;3086;48.802;9.394;2023-04-16T08:36:11;25.67;;;19.67;;
6111;SDS011;3086;48.802;9.394;2023-04-16T08:39:32;25.57;;;18.90;;
6111;SDS011;3086;48.802;9.394;2023-04-16T08:42:57;29.13;;;19.43;;
6111;SDS011;3086;48.802;9.394;2023-04-16T08:46:19;19.70;;;16.00;;
6111;SDS011;3086;48.802;9.394;2023-04-16T08:49:43;21.43;;;16.07;;
6111;SDS011;3086;48.802;9.394;2023-04-16T08:53:05;22.10;;;17.20;;
6111;SDS011;3086;48.802;9.394;2023-04-16T09:00:45;20.27;;;16.47;;
6111;SDS011;3086;48.802;9.394;2023-04-16T09:04:08;22.30;;;15.50;;
6111;SDS011;3086;48.802;9.394;2023-04-16T09:07:29;20.27;;;15.67;;
6111;SDS011;3086;48.802;9.394;2023-04-16T09:10:52;21.57;;;16.70;;
6111;SDS011;3086;48.802;9.394;2023-04-16T09:14:18;18.00;;;14.40;;
6111;SDS011;3086;48.802;9.394;2023-04-16T09:17:42;21.33;;;15.67;;
6111;SDS011;3086;48.802;9.394;2023-04-16T09:21:04;20.57;;;15.67;;
6111;SDS011;3086;48.802;9.394;2023-04-16T09:24:27;19.13;;;15.37;;
6111;SDS011;3086;48.802;9.394;2023-04-16T09:27:49;17.53;;;14.40;;
6111;SDS011;3086;48.802;9.394;2023-04-16T09:31:12;16.10;;;13.80;;
6111;SDS011;3086;48.802;9.394;2023-04-16T09:38:15;20.60;;;15.13;;
6111;SDS011;3086;48.802;9.394;2023-04-16T09:41:37;25.37;;;14.53;;
6111;SDS011;3086;48.802;9.394;2023-04-16T09:45:00;26.57;;;22.00;;
6111;SDS011;3086;48.802;9.394;2023-04-16T09:48:31;111.60;;;74.30;;
6111;SDS011;3086;48.802;9.394;2023-04-16T09:51:56;18.00;;;14.30;;
6111;SDS011;3086;48.802;9.394;2023-04-16T09:55:21;20.40;;;14.77;;
6111;SDS011;3086;48.802;9.394;2023-04-16T09:58:46;21.23;;;16.20;;
6111;SDS011;3086;48.802;9.394;2023-04-16T10:02:08;17.23;;;14.73;;
6111;SDS011;3086;48.802;9.394;2023-04-16T10:05:29;19.53;;;14.97;;
6111;SDS011;3086;48.802;9.394;2023-04-16T10:08:53;19.23;;;14.97;;
6111;SDS011;3086;48.802;9.394;2023-04-16T10:12:16;21.03;;;16.47;;
6111;SDS011;3086;48.802;9.394;2023-04-16T10:15:37;24.30;;;16.67;;
6111;SDS011;3086;48.802;9.394;2023-04-16T10:19:00;19.90;;;15.67;;
6111;SDS011;3086;48.802;9.394;2023-04-16T10:22:25;21.97;;;16.23;;
6111;SDS011;3086;48.802;9.394;2023-04-16T10:25:48;18.77;;;15.07;;
6111;SDS011;3086;48.802;9.394;2023-04-16T10:29:10;21.43;;;16.47;;
6111;SDS011;3086;48.802;9.394;2023-04-16T10:32:32;22.80;;;15.80;;
6111;SDS011;3086;48.802;9.394;2023-04-16T10:39:45;21.17;;;16.57;;
6111;SDS011;3086;48.802;9.394;2023-04-16T10:43:08;28.70;;;18.90;;
6111;SDS011;3086;48.802;9.394;2023-04-16T10:46:39;23.17;;;16.17;;
6111;SDS011;3086;48.802;9.394;2023-04-16T10:50:01;25.10;;;16.80;;
6111;SDS011;3086;48.802;9.394;2023-04-16T10:53:38;23.57;;;17.50;;
6111;SDS011;3086;48.802;9.394;2023-04-16T10:57:06;23.80;;;16.87;;
6111;SDS011;3086;48.802;9.394;2023-04-16T11:00:50;23.70;;;16.90;;
6111;SDS011;3086;48.802;9.394;2023-04-16T11:04:25;22.90;;;15.77;;
6111;SDS011;3086;48.802;9.394;2023-04-16T11:07:50;21.63;;;15.27;;
6111;SDS011;3086;48.802;9.394;2023-04-16T11:11:23;21.27;;;15.33;;
6111;SDS011;3086;48.802;9.394;2023-04-16T11:14:49;18.87;;;14.13;;
6111;SDS011;3086;48.802;9.394;2023-04-16T11:18:15;22.53;;;15.77;;
6111;SDS011;3086;48.802;9.394;2023-04-16T11:21:39;19.47;;;14.77;;
6111;SDS011;3086;48.802;9.394;2023-04-16T11:25:03;20.03;;;13.27;;
6111;SDS011;3086;48.802;9.394;2023-04-16T11:28:31;19.70;;;14.40;;
6111;SDS011;3086;48.802;9.394;2023-04-16T11:31:53;20.33;;;14.03;;
6111;SDS011;3086;48.802;9.394;2023-04-16T11:35:17;19.47;;;13.37;;
6111;SDS011;3086;48.802;9.394;2023-04-16T11:38:39;20.77;;;14.63;;
6111;SDS011;3086;48.802;9.394;2023-04-16T11:42:02;20.87;;;14.63;;
6111;SDS011;3086;48.802;9.394;2023-04-16T11:45:23;18.17;;;12.50;;
6111;SDS011;3086;48.802;9.394;2023-04-16T11:48:48;18.73;;;12.90;;
6111;SDS011;3086;48.802;9.394;2023-04-16T11:52:12;14.77;;;11.40;;
6111;SDS011;3086;48.802;9.394;2023-04-16T11:55:41;16.23;;;12.07;;
6111;SDS011;3086;48.802;9.394;2023-04-16T11:59:07;15.50;;;10.73;;
6111;SDS011;3086;48.802;9.394;2023-04-16T12:02:35;13.63;;;9.73;;
6111;SDS011;3086;48.802;9.394;2023-04-16T12:06:05;12.80;;;9.77;;
6111;SDS011;3086;48.802;9.394;2023-04-16T12:09:29;12.43;;;9.47;;
6111;SDS011;3086;48.802;9.394;2023-04-16T12:12:51;13.73;;;10.03;;
6111;SDS011;3086;48.802;9.394;2023-04-16T12:16:17;11.67;;;8.87;;
6111;SDS011;3086;48.802;9.394;2023-04-16T12:19:46;11.50;;;8.10;;
6111;SDS011;3086;48.802;9.394;2023-04-16T12:23:13;10.40;;;8.40;;
6111;SDS011;3086;48.802;9.394;2023-04-16T12:26:44;10.63;;;8.43;;
6111;SDS011;3086;48.802;9.394;2023-04-16T12:30:08;12.33;;;9.27;;
6111;SDS011;3086;48.802;9.394;2023-04-16T12:33:30;11.27;;;9.23;;
6111;SDS011;3086;48.802;9.394;2023-04-16T12:37:04;10.93;;;8.53;;
6111;SDS011;3086;48.802;9.394;2023-04-16T12:40:28;12.43;;;9.47;;
6111;SDS011;3086;48.802;9.394;2023-04-16T12:43:51;11.47;;;9.00;;
6111;SDS011;3086;48.802;9.394;2023-04-16T12:47:13;10.40;;;8.40;;
6111;SDS011;3086;48.802;9.394;2023-04-16T12:50:35;10.13;;;8.27;;
6111;SDS011;3086;48.802;9.394;2023-04-16T12:53:58;12.60;;;10.37;;
6111;SDS011;3086;48.802;9.394;2023-04-16T12:57:21;10.27;;;8.10;;
6111;SDS011;3086;48.802;9.394;2023-04-16T13:00:49;10.90;;;7.30;;
6111;SDS011;3086;48.802;9.394;2023-04-16T13:04:11;9.47;;;7.73;;
6111;SDS011;3086;48.802;9.394;2023-04-16T13:07:32;9.93;;;8.07;;
6111;SDS011;3086;48.802;9.394;2023-04-16T13:10:54;8.50;;;7.70;;
6111;SDS011;3086;48.802;9.394;2023-04-16T13:14:16;9.43;;;8.40;;
6111;SDS011;3086;48.802;9.394;2023-04-16T13:17:39;9.10;;;7.83;;
6111;SDS011;3086;48.802;9.394;2023-04-16T13:21:01;9.27;;;7.47;;
6111;SDS011;3086;48.802;9.394;2023-04-16T13:24:23;8.97;;;8.03;;
6111;SDS011;3086;48.802;9.394;2023-04-16T13:27:46;10.70;;;8.20;;
6111;SDS011;3086;48.802;9.394;2023-04-16T13:31:11;14.17;;;11.17;;
6111;SDS011;3086;48.802;9.394;2023-04-16T13:34:36;9.63;;;8.63;;
6111;SDS011;3086;48.802;9.394;2023-04-16T13:37:58;9.27;;;8.07;;
6111;SDS011;3086;48.802;9.394;2023-04-16T13:41:20;8.40;;;7.57;;
6111;SDS011;3086;48.802;9.394;2023-04-16T13:44:42;10.80;;;8.80;;
6111;SDS011;3086;48.802;9.394;2023-04-16T13:48:06;10.07;;;8.30;;
6111;SDS011;3086;48.802;9.394;2023-04-16T13:51:32;10.60;;;8.53;;
6111;SDS011;3086;48.802;9.394;2023-04-16T13:54:55;11.03;;;8.40;;
6111;SDS011;3086;48.802;9.394;2023-04-16T13:58:20;9.03;;;8.07;;
6111;SDS011;3086;48.802;9.394;2023-04-16T14:01:42;11.33;;;8.33;;
6111;SDS011;3086;48.802;9.394;2023-04-16T14:05:04;10.87;;;9.70;;
6111;SDS011;3086;48.802;9.394;2023-04-16T14:08:27;11.47;;;9.57;;
6111;SDS011;3086;48.802;9.394;2023-04-16T14:11:49;16.97;;;12.03;;
6111;SDS011;3086;48.802;9.394;2023-04-16T14:15:11;15.37;;;11.33;;
6111;SDS011;3086;48.802;9.394;2023-04-16T14:18:34;11.67;;;10.13;;
6111;SDS011;3086;48.802;9.394;2023-04-16T14:22:00;12.37;;;10.10;;
6111;SDS011;3086;48.802;9.394;2023-04-16T14:25:24;13.20;;;10.93;;
6111;SDS011;3086;48.802;9.394;2023-04-16T14:28:46;15.33;;;11.70;;
6111;SDS011;3086;48.802;9.394;2023-04-16T14:32:07;13.57;;;10.70;;
6111;SDS011;3086;48.802;9.394;2023-04-16T14:35:29;17.90;;;13.10;;
6111;SDS011;3086;48.802;9.394;2023-04-16T14:38:51;16.07;;;12.70;;
6111;SDS011;3086;48.802;9.394;2023-04-16T14:42:14;17.07;;;14.60;;
6111;SDS011;3086;48.802;9.394;2023-04-16T14:45:36;14.83;;;11.60;;
6111;SDS011;3086;48.802;9.394;2023-04-16T14:48:58;16.33;;;12.30;;
6111;SDS011;3086;48.802;9.394;2023-04-16T14:52:20;15.20;;;11.87;;
6111;SDS011;3086;48.802;9.394;2023-04-16T14:55:41;16.77;;;13.43;;
6111;SDS011;3086;48.802;9.394;2023-04-16T14:59:04;16.17;;;13.23;;
6111;SDS011;3086;48.802;9.394;2023-04-16T15:02:26;18.13;;;14.47;;
6111;SDS011;3086;48.802;9.394;2023-04-16T15:05:48;16.77;;;13.80;;
6111;SDS011;3086;48.802;9.394;2023-04-16T15:09:14;17.80;;;13.73;;
6111;SDS011;3086;48.802;9.394;2023-04-16T15:12:36;17.70;;;13.37;;
6111;SDS011;3086;48.802;9.394;2023-04-16T15:15:59;18.87;;;13.83;;
6111;SDS011;3086;48.802;9.394;2023-04-16T15:19:21;19.60;;;14.77;;
6111;SDS011;3086;48.802;9.394;2023-04-16T15:22:42;16.33;;;13.43;;
6111;SDS011;3086;48.802;9.394;2023-04-16T15:26:04;18.47;;;13.97;;
6111;SDS011;3086;48.802;9.394;2023-04-16T15:29:26;18.50;;;15.57;;
6111;SDS011;3086;48.802;9.394;2023-04-16T15:32:49;21.20;;;14.60;;
6111;SDS011;3086;48.802;9.394;2023-04-16T15:36:10;21.27;;;15.43;;
6111;SDS011;3086;48.802;9.394;2023-04-16T15:39:32;20.93;;;16.00;;
6111;SDS011;3086;48.802;9.394;2023-04-16T15:42:55;24.87;;;17.70;;
6111;SDS011;3086;48.802;9.394;2023-04-16T15:46:16;22.83;;;17.30;;
6111;SDS011;3086;48.802;9.394;2023-04-16T15:49:39;27.97;;;19.00;;
6111;SDS011;3086;48.802;9.394;2023-04-16T15:53:01;21.00;;;16.63;;
6111;SDS011;3086;48.802;9.394;2023-04-16T15:56:29;26.43;;;18.50;;
6111;SDS011;3086;48.802;9.394;2023-04-16T15:59:52;25.20;;;19.30;;
6111;SDS011;3086;48.802;9.394;2023-04-16T16:03:14;26.20;;;18.90;;
6111;SDS011;3086;48.802;9.394;2023-04-16T16:06:38;25.37;;;18.83;;
6111;SDS011;3086;48.802;9.394;2023-04-16T16:10:00;23.70;;;18.73;;
6111;SDS011;3086;48.802;9.394;2023-04-16T16:13:22;25.00;;;18.53;;
6111;SDS011;3086;48.802;9.394;2023-04-16T16:16:44;26.03;;;18.80;;
6111;SDS011;3086;48.802;9.394;2023-04-16T16:20:05;27.30;;;19.73;;
6111;SDS011;3086;48.802;9.394;2023-04-16T16:23:30;30.47;;;20.70;;
6111;SDS011;3086;48.802;9.394;2023-04-16T16:26:52;27.83;;;19.77;;
6111;SDS011;3086;48.802;9.394;2023-04-16T16:30:17;30.43;;;21.90;;
6111;SDS011;3086;48.802;9.394;2023-04-16T16:33:38;32.33;;;21.90;;
6111;SDS011;3086;48.802;9.394;2023-04-16T16:37:00;30.63;;;21.23;;
6111;SDS011;3086;48.802;9.394;2023-04-16T16:40:23;31.70;;;22.33;;
6111;SDS011;3086;48.802;9.394;2023-04-16T16:43:46;32.10;;;21.40;;
6111;SDS011;3086;48.802;9.394;2023-04-16T16:47:08;27.97;;;22.07;;
6111;SDS011;3086;48.802;9.394;2023-04-16T16:50:32;39.73;;;23.40;;
6111;SDS011;3086;48.802;9.394;2023-04-16T16:53:54;31.17;;;23.40;;
6111;SDS011;3086;48.802;9.394;2023-04-16T16:57:18;35.33;;;24.47;;
6111;SDS011;3086;48.802;9.394;2023-04-16T17:00:40;35.47;;;24.03;;
6111;SDS011;3086;48.802;9.394;2023-04-16T17:04:01;38.70;;;25.67;;
6111;SDS011;3086;48.802;9.394;2023-04-16T17:07:23;35.53;;;23.67;;
6111;SDS011;3086;48.802;9.394;2023-04-16T17:10:45;41.00;;;26.80;;
6111;SDS011;3086;48.802;9.394;2023-04-16T17:14:08;38.07;;;24.80;;
6111;SDS011;3086;48.802;9.394;2023-04-16T17:17:30;35.77;;;24.40;;
6111;SDS011;3086;48.802;9.394;2023-04-16T17:20:52;40.27;;;24.37;;
6111;SDS011;3086;48.802;9.394;2023-04-16T17:24:13;35.23;;;24.77;;
6111;SDS011;3086;48.802;9.394;2023-04-16T17:27:35;34.47;;;23.90;;
6111;SDS011;3086;48.802;9.394;2023-04-16T17:30:58;35.87;;;23.73;;
6111;SDS011;3086;48.802;9.394;2023-04-16T17:34:20;34.27;;;25.57;;
6111;SDS011;3086;48.802;9.394;2023-04-16T17:37:45;37.23;;;26.00;;
6111;SDS011;3086;48.802;9.394;2023-04-16T17:41:07;36.17;;;25.33;;
6111;SDS011;3086;48.802;9.394;2023-04-16T17:44:28;36.10;;;24.30;;
6111;SDS011;3086;48.802;9.394;2023-04-16T17:47:51;37.00;;;25.03;;
6111;SDS011;3086;48.802;9.394;2023-04-16T17:51:13;35.07;;;24.07;;
6111;SDS011;3086;48.802;9.394;2023-04-16T17:54:35;36.17;;;24.23;;
6111;SDS011;3086;48.802;9.394;2023-04-16T17:58:04;32.87;;;23.40;;
6111;SDS011;3086;48.802;9.394;2023-04-16T18:01:26;37.43;;;25.83;;
6111;SDS011;3086;48.802;9.394;2023-04-16T18:04:50;41.13;;;26.07;;
6111;SDS011;3086;48.802;9.394;2023-04-16T18:08:12;37.13;;;25.53;;
6111;SDS011;3086;48.802;9.394;2023-04-16T18:11:34;36.70;;;24.83;;
6111;SDS011;3086;48.802;9.394;2023-04-16T18:14:56;37.40;;;26.03;;
6111;SDS011;3086;48.802;9.394;2023-04-16T18:18:17;39.63;;;25.73;;
6111;SDS011;3086;48.802;9.394;2023-04-16T18:21:41;38.30;;;24.57;;
6111;SDS011;3086;48.802;9.394;2023-04-16T18:25:04;34.43;;;24.40;;
6111;SDS011;3086;48.802;9.394;2023-04-16T18:28:27;38.57;;;25.93;;
6111;SDS011;3086;48.802;9.394;2023-04-16T18:31:51;51.27;;;33.10;;
6111;SDS011;3086;48.802;9.394;2023-04-16T18:35:13;44.53;;;29.57;;
6111;SDS011;3086;48.802;9.394;2023-04-16T18:38:36;31.50;;;24.23;;
6111;SDS011;3086;48.802;9.394;2023-04-16T18:41:58;35.63;;;24.53;;
6111;SDS011;3086;48.802;9.394;2023-04-16T18:45:20;38.90;;;26.93;;
6111;SDS011;3086;48.802;9.394;2023-04-16T18:48:44;38.47;;;25.37;;
6111;SDS011;3086;48.802;9.394;2023-04-16T18:52:06;46.60;;;31.37;;
6111;SDS011;3086;48.802;9.394;2023-04-16T18:55:29;54.07;;;35.60;;
6111;SDS011;3086;48.802;9.394;2023-04-16T18:58:51;42.33;;;27.97;;
6111;SDS011;3086;48.802;9.394;2023-04-16T19:02:12;46.97;;;29.50;;
6111;SDS011;3086;48.802;9.394;2023-04-16T19:05:34;38.23;;;27.17;;
6111;SDS011;3086;48.802;9.394;2023-04-16T19:08:56;44.93;;;28.83;;
6111;SDS011;3086;48.802;9.394;2023-04-16T19:12:21;53.07;;;38.33;;
6111;SDS011;3086;48.802;9.394;2023-04-16T19:15:43;45.53;;;27.80;;
6111;SDS011;3086;48.802;9.394;2023-04-16T19:19:05;37.40;;;27.57;;
6111;SDS011;3086;48.802;9.394;2023-04-16T19:22:27;43.27;;;29.53;;
6111;SDS011;3086;48.802;9.394;2023-04-16T19:25:50;40.23;;;28.27;;
6111;SDS011;3086;48.802;9.394;2023-04-16T19:29:13;40.07;;;27.50;;
6111;SDS011;3086;48.802;9.394;2023-04-16T19:32:36;42.47;;;27.63;;
6111;SDS011;3086;48.802;9.394;2023-04-16T19:35:58;45.07;;;28.53;;
6111;SDS011;3086;48.802;9.394;2023-04-16T19:39:20;42.57;;;27.97;;
6111;SDS011;3086;48.802;9.394;2023-04-16T19:42:42;42.03;;;28.50;;
6111;SDS011;3086;48.802;9.394;2023-04-16T19:46:05;40.43;;;28.07;;
6111;SDS011;3086;48.802;9.394;2023-04-16T19:49:27;41.03;;;26.80;;
6111;SDS011;3086;48.802;9.394;2023-04-16T19:52:49;38.17;;;26.70;;
6111;SDS011;3086;48.802;9.394;2023-04-16T19:56:16;38.27;;;26.67;;
6111;SDS011;3086;48.802;9.394;2023-04-16T19:59:38;38.53;;;25.23;;
6111;SDS011;3086;48.802;9.394;2023-04-16T20:03:01;34.37;;;24.97;;
6111;SDS011;3086;48.802;9.394;2023-04-16T20:06:23;42.87;;;28.97;;
6111;SDS011;3086;48.802;9.394;2023-04-16T20:09:45;39.30;;;25.93;;
6111;SDS011;3086;48.802;9.394;2023-04-16T20:13:07;44.67;;;33.37;;
6111;SDS011;3086;48.802;9.394;2023-04-16T20:16:31;37.20;;;26.47;;
6111;SDS011;3086;48.802;9.394;2023-04-16T20:19:54;49.17;;;39.33;;
6111;SDS011;3086;48.802;9.394;2023-04-16T20:23:19;39.40;;;28.47;;
6111;SDS011;3086;48.802;9.394;2023-04-16T20:26:41;34.63;;;25.80;;
6111;SDS011;3086;48.802;9.394;2023-04-16T20:30:03;36.77;;;26.07;;
6111;SDS011;3086;48.802;9.394;2023-04-16T20:33:25;38.87;;;26.40;;
6111;SDS011;3086;48.802;9.394;2023-04-16T20:36:48;35.43;;;25.70;;
6111;SDS011;3086;48.802;9.394;2023-04-16T20:40:10;38.00;;;26.63;;
6111;SDS011;3086;48.802;9.394;2023-04-16T20:43:32;39.70;;;27.83;;
6111;SDS011;3086;48.802;9.394;2023-04-16T20:46:57;38.03;;;27.53;;
6111;SDS011;3086;48.802;9.394;2023-04-16T20:50:19;39.57;;;27.47;;
6111;SDS011;3086;48.802;9.394;2023-04-16T20:53:42;36.30;;;27.43;;
6111;SDS011;3086;48.802;9.394;2023-04-16T21:01:20;35.53;;;26.60;;
6111;SDS011;3086;48.802;9.394;2023-04-16T21:04:42;39.60;;;29.00;;
6111;SDS011;3086;48.802;9.394;2023-04-16T21:08:03;36.37;;;27.70;;